Private Wetterstation Sandau
Wetterdaten: Samstag, 25.02.2012
Datum Zeit Temp. A. Feuchte A. Luftdruck Regen Wind Richtung Richtung Taupunkt Windchill
25.02.2012 00:02 6,3 C 81 % 1020,5 hPa 0,0 l/m 21,6 km/h (4 Bft) NW 315 3,3 C 2,5 C
25.02.2012 00:07 6,2 C 81 % 1020,3 hPa 0,0 l/m 16,9 km/h (3 Bft) W-NW 292 3,2 C 3,0 C
25.02.2012 00:12 6,1 C 81 % 1020,5 hPa 0,0 l/m 17,3 km/h (3 Bft) W-NW 292 3,1 C 2,8 C
25.02.2012 00:17 6,1 C 81 % 1020,5 hPa 0,0 l/m 16,6 km/h (3 Bft) W-NW 292 3,1 C 2,9 C
25.02.2012 00:22 5,9 C 81 % 1020,6 hPa 0,0 l/m 13,7 km/h (3 Bft) SW 225 2,9 C 3,1 C
25.02.2012 00:27 5,9 C 81 % 1020,5 hPa 0,0 l/m 18,7 km/h (3 Bft) W-NW 292 2,9 C 2,4 C
25.02.2012 00:32 5,8 C 81 % 1020,5 hPa 0,0 l/m 13,3 km/h (3 Bft) W 270 2,8 C 3,0 C
25.02.2012 00:37 5,8 C 81 % 1020,5 hPa 0,0 l/m 22,3 km/h (4 Bft) W-NW 292 2,8 C 1,8 C
25.02.2012 00:42 5,8 C 81 % 1020,6 hPa 0,0 l/m 15,8 km/h (3 Bft) W-NW 292 2,8 C 2,6 C
25.02.2012 00:47 5,6 C 81 % 1020,5 hPa 0,0 l/m 21,6 km/h (4 Bft) W-NW 292 2,6 C 1,6 C
25.02.2012 00:52 5,6 C 82 % 1020,6 hPa 0,0 l/m 19,1 km/h (3 Bft) W 270 2,8 C 1,9 C
25.02.2012 00:57 5,6 C 82 % 1020,7 hPa 0,0 l/m 22,3 km/h (4 Bft) W-NW 292 2,8 C 1,6 C
25.02.2012 01:02 5,6 C 82 % 1020,8 hPa 0,0 l/m 12,6 km/h (3 Bft) W 270 2,8 C 2,9 C
25.02.2012 01:07 5,5 C 82 % 1020,9 hPa 0,0 l/m 23,8 km/h (4 Bft) W-SW 247 2,7 C 1,3 C
25.02.2012 01:12 5,4 C 82 % 1020,9 hPa 0,0 l/m 24,5 km/h (4 Bft) W 270 2,6 C 1,1 C
25.02.2012 01:17 5,4 C 82 % 1020,8 hPa 0,0 l/m 18,7 km/h (3 Bft) W-NW 292 2,6 C 1,7 C
25.02.2012 01:22 5,4 C 83 % 1020,9 hPa 0,0 l/m 24,5 km/h (4 Bft) W-NW 292 2,7 C 1,1 C
25.02.2012 01:27 5,3 C 83 % 1020,8 hPa 0,0 l/m 20,2 km/h (4 Bft) W 270 2,7 C 1,4 C
25.02.2012 01:32 5,3 C 83 % 1020,9 hPa 0,0 l/m 13,0 km/h (3 Bft) W-NW 292 2,7 C 2,4 C
25.02.2012 01:37 5,3 C 83 % 1020,9 hPa 0,0 l/m 18,4 km/h (3 Bft) W-NW 292 2,7 C 1,6 C
25.02.2012 01:42 5,3 C 83 % 1020,9 hPa 0,0 l/m 23,0 km/h (4 Bft) W 270 2,7 C 1,1 C
25.02.2012 01:47 5,2 C 83 % 1020,9 hPa 0,0 l/m 10,8 km/h (2 Bft) NW 315 2,6 C 2,7 C
25.02.2012 01:52 5,2 C 83 % 1020,9 hPa 0,0 l/m 13,0 km/h (3 Bft) W-NW 292 2,6 C 2,3 C
25.02.2012 01:57 5,1 C 83 % 1020,9 hPa 0,0 l/m 23,4 km/h (4 Bft) W-SW 247 2,5 C 0,8 C
25.02.2012 02:02 5,1 C 83 % 1020,8 hPa 0,0 l/m 16,6 km/h (3 Bft) W 270 2,5 C 1,6 C
25.02.2012 02:07 5,1 C 83 % 1021,0 hPa 0,0 l/m 15,5 km/h (3 Bft) W-NW 292 2,5 C 1,8 C
25.02.2012 02:12 5,0 C 84 % 1020,8 hPa 0,0 l/m 32,8 km/h (5 Bft) W-NW 292 2,5 C -0,2 C
25.02.2012 02:17 5,0 C 84 % 1020,8 hPa 0,0 l/m 16,6 km/h (3 Bft) W 270 2,5 C 1,5 C
25.02.2012 02:22 4,9 C 84 % 1020,8 hPa 0,0 l/m 23,4 km/h (4 Bft) W-NW 292 2,4 C 0,6 C
25.02.2012 02:27 4,9 C 84 % 1020,8 hPa 0,0 l/m 14,4 km/h (3 Bft) W-NW 292 2,4 C 1,7 C
25.02.2012 02:32 4,9 C 84 % 1020,7 hPa 0,0 l/m 15,8 km/h (3 Bft) W-NW 292 2,4 C 1,5 C
25.02.2012 02:37 4,9 C 84 % 1020,7 hPa 0,0 l/m 20,9 km/h (4 Bft) W 270 2,4 C 0,8 C
25.02.2012 02:42 4,9 C 84 % 1020,6 hPa 0,0 l/m 11,2 km/h (2 Bft) W-SW 247 2,4 C 2,3 C
25.02.2012 02:47 4,8 C 84 % 1020,5 hPa 0,0 l/m 25,2 km/h (4 Bft) W-NW 292 2,3 C 0,2 C
25.02.2012 02:52 4,8 C 84 % 1020,4 hPa 0,0 l/m 20,9 km/h (4 Bft) W 270 2,3 C 0,7 C
25.02.2012 02:57 4,8 C 84 % 1020,4 hPa 0,0 l/m 15,8 km/h (3 Bft) W 270 2,3 C 1,4 C
25.02.2012 03:02 4,7 C 84 % 1020,4 hPa 0,0 l/m 13,3 km/h (3 Bft) W-NW 292 2,2 C 1,7 C
25.02.2012 03:07 4,6 C 85 % 1020,3 hPa 0,0 l/m 22,3 km/h (4 Bft) W 270 2,3 C 0,3 C
25.02.2012 03:12 4,6 C 85 % 1020,3 hPa 0,0 l/m 14,4 km/h (3 Bft) W-NW 292 2,3 C 1,4 C
25.02.2012 03:17 4,6 C 85 % 1020,4 hPa 0,0 l/m 30,2 km/h (5 Bft) W 270 2,3 C -0,5 C
25.02.2012 03:22 4,5 C 85 % 1020,4 hPa 0,0 l/m 21,6 km/h (4 Bft) W-NW 292 2,2 C 0,2 C
25.02.2012 03:27 4,5 C 85 % 1020,3 hPa 0,0 l/m 27,4 km/h (4 Bft) W 270 2,2 C -0,4 C
25.02.2012 03:32 4,5 C 85 % 1020,1 hPa 0,0 l/m 19,8 km/h (3 Bft) W-NW 292 2,2 C 0,5 C
25.02.2012 03:37 4,5 C 85 % 1020,0 hPa 0,0 l/m 19,4 km/h (3 Bft) W-NW 292 2,2 C 0,5 C
25.02.2012 03:42 4,5 C 84 % 1019,9 hPa 0,0 l/m 25,2 km/h (4 Bft) W-NW 292 2,0 C -0,1 C
25.02.2012 03:47 4,5 C 84 % 1019,9 hPa 0,0 l/m 24,5 km/h (4 Bft) W 270 2,0 C -0,1 C
25.02.2012 03:52 4,5 C 84 % 1019,9 hPa 0,0 l/m 25,2 km/h (4 Bft) W 270 2,0 C -0,1 C
25.02.2012 03:57 4,5 C 84 % 1019,7 hPa 0,0 l/m 21,6 km/h (4 Bft) W-NW 292 2,0 C 0,2 C
25.02.2012 04:02 4,4 C 84 % 1019,7 hPa 0,0 l/m 12,2 km/h (2 Bft) NW 315 1,9 C 1,5 C
25.02.2012 04:07 4,4 C 84 % 1019,7 hPa 0,0 l/m 21,6 km/h (4 Bft) W-NW 292 1,9 C 0,1 C
25.02.2012 04:12 4,4 C 84 % 1019,7 hPa 0,0 l/m 14,4 km/h (3 Bft) W-NW 292 1,9 C 1,1 C
25.02.2012 04:17 4,4 C 84 % 1019,8 hPa 0,0 l/m 14,4 km/h (3 Bft) W-SW 247 1,9 C 1,1 C
25.02.2012 04:22 4,3 C 84 % 1019,8 hPa 0,0 l/m 14,0 km/h (3 Bft) W-NW 292 1,8 C 1,0 C
25.02.2012 04:27 4,3 C 84 % 1019,7 hPa 0,0 l/m 12,2 km/h (2 Bft) W-NW 292 1,8 C 1,4 C
25.02.2012 04:32 4,2 C 85 % 1019,6 hPa 0,0 l/m 8,3 km/h (2 Bft) NW 315 1,9 C 2,1 C
25.02.2012 04:37 4,2 C 85 % 1019,6 hPa 0,0 l/m 13,3 km/h (3 Bft) W-NW 292 1,9 C 1,0 C
25.02.2012 04:42 4,2 C 85 % 1019,7 hPa 0,0 l/m 22,7 km/h (4 Bft) W-SW 247 1,9 C -0,3 C
25.02.2012 04:47 4,2 C 85 % 1019,7 hPa 0,0 l/m 22,7 km/h (4 Bft) W-NW 292 1,9 C -0,3 C
25.02.2012 04:52 4,2 C 85 % 1019,8 hPa 0,0 l/m 17,6 km/h (3 Bft) W 270 1,9 C 0,4 C
25.02.2012 04:57 4,2 C 85 % 1019,8 hPa 0,0 l/m 32,4 km/h (5 Bft) W 270 1,9 C -1,2 C
25.02.2012 05:02 4,2 C 85 % 1019,7 hPa 0,0 l/m 9,4 km/h (2 Bft) NW 315 1,9 C 1,8 C
25.02.2012 05:07 4,2 C 85 % 1019,7 hPa 0,0 l/m 17,3 km/h (3 Bft) W-SW 247 1,9 C 0,4 C
25.02.2012 05:12 4,1 C 85 % 1019,7 hPa 0,0 l/m 16,9 km/h (3 Bft) W-NW 292 1,8 C 0,3 C
25.02.2012 05:17 4,1 C 85 % 1019,8 hPa 0,0 l/m 22,7 km/h (4 Bft) W-NW 292 1,8 C -0,4 C
25.02.2012 05:22 4,1 C 85 % 1020,0 hPa 0,0 l/m 27,4 km/h (4 Bft) W-NW 292 1,8 C -0,9 C
25.02.2012 05:27 4,1 C 85 % 1019,7 hPa 0,0 l/m 19,1 km/h (3 Bft) W 270 1,8 C 0,0 C
25.02.2012 05:32 4,1 C 85 % 1019,8 hPa 0,0 l/m 21,2 km/h (4 Bft) W-NW 292 1,8 C -0,2 C
25.02.2012 05:37 4,1 C 85 % 1019,9 hPa 0,0 l/m 25,6 km/h (4 Bft) W 270 1,8 C -0,7 C
25.02.2012 05:42 4,0 C 85 % 1019,9 hPa 0,0 l/m 15,5 km/h (3 Bft) N-NW 337 1,7 C 0,4 C
25.02.2012 05:47 3,9 C 85 % 1019,7 hPa 0,0 l/m 19,1 km/h (3 Bft) W 270 1,6 C -0,2 C
25.02.2012 05:52 3,9 C 85 % 1019,7 hPa 0,0 l/m 23,0 km/h (4 Bft) W-NW 292 1,6 C -0,7 C
25.02.2012 05:57 3,9 C 85 % 1019,8 hPa 0,0 l/m 20,9 km/h (4 Bft) W 270 1,6 C -0,4 C
25.02.2012 06:02 3,9 C 85 % 1019,9 hPa 0,0 l/m 19,1 km/h (3 Bft) W-SW 247 1,6 C -0,2 C
25.02.2012 06:07 3,9 C 85 % 1019,8 hPa 0,0 l/m 19,8 km/h (3 Bft) W-SW 247 1,6 C -0,3 C
25.02.2012 06:12 3,9 C 85 % 1019,7 hPa 0,0 l/m 11,9 km/h (2 Bft) W-SW 247 1,6 C 0,9 C
25.02.2012 06:17 3,9 C 85 % 1019,7 hPa 0,0 l/m 10,8 km/h (2 Bft) W 270 1,6 C 1,2 C
25.02.2012 06:22 3,9 C 86 % 1019,8 hPa 0,0 l/m 15,8 km/h (3 Bft) W 270 1,8 C 0,3 C
25.02.2012 06:27 3,8 C 86 % 1019,8 hPa 0,0 l/m 18,7 km/h (3 Bft) W 270 1,7 C -0,3 C
25.02.2012 06:32 3,8 C 86 % 1019,8 hPa 0,0 l/m 9,4 km/h (2 Bft) W 270 1,7 C 1,4 C
25.02.2012 06:37 3,8 C 86 % 1019,7 hPa 0,0 l/m 8,3 km/h (2 Bft) W 270 1,7 C 1,6 C
25.02.2012 06:42 3,8 C 86 % 1019,7 hPa 0,0 l/m 16,6 km/h (3 Bft) W-SW 247 1,7 C 0,0 C
25.02.2012 06:47 3,8 C 86 % 1019,6 hPa 0,0 l/m 10,1 km/h (2 Bft) W 270 1,7 C 1,2 C
25.02.2012 06:52 3,8 C 86 % 1019,7 hPa 0,0 l/m 10,8 km/h (2 Bft) W-NW 292 1,7 C 1,0 C
25.02.2012 06:57 3,8 C 86 % 1019,7 hPa 0,0 l/m 9,7 km/h (2 Bft) W-NW 292 1,7 C 1,3 C
25.02.2012 07:02 3,8 C 86 % 1019,7 hPa 0,0 l/m 18,4 km/h (3 Bft) W-NW 292 1,7 C -0,2 C
25.02.2012 07:07 3,8 C 86 % 1019,9 hPa 0,0 l/m 9,7 km/h (2 Bft) SW 225 1,7 C 1,3 C
25.02.2012 07:12 3,8 C 86 % 1019,8 hPa 0,0 l/m 11,2 km/h (2 Bft) SW 225 1,7 C 1,0 C
25.02.2012 07:17 3,7 C 86 % 1019,7 hPa 0,0 l/m 15,1 km/h (3 Bft) W 270 1,6 C 0,1 C
25.02.2012 07:22 3,6 C 86 % 1019,8 hPa 0,0 l/m 13,3 km/h (3 Bft) W-SW 247 1,5 C 0,3 C
25.02.2012 07:27 3,7 C 86 % 1019,8 hPa 0,0 l/m 26,3 km/h (4 Bft) W-SW 247 1,6 C -1,3 C
25.02.2012 07:32 3,7 C 86 % 1019,8 hPa 0,0 l/m 8,3 km/h (2 Bft) W-NW 292 1,6 C 1,5 C
25.02.2012 07:37 3,7 C 86 % 1019,8 hPa 0,0 l/m 7,2 km/h (2 Bft) NW 315 1,6 C 1,8 C
25.02.2012 07:42 3,6 C 86 % 1019,9 hPa 0,0 l/m 16,9 km/h (3 Bft) W-SW 247 1,5 C -0,3 C
25.02.2012 07:47 3,6 C 86 % 1019,8 hPa 0,0 l/m 16,6 km/h (3 Bft) W 270 1,5 C -0,2 C
25.02.2012 07:52 3,7 C 86 % 1019,9 hPa 0,0 l/m 11,2 km/h (2 Bft) W 270 1,6 C 0,8 C
25.02.2012 07:57 3,7 C 86 % 1020,0 hPa 0,0 l/m 10,1 km/h (2 Bft) W-SW 247 1,6 C 1,1 C
25.02.2012 08:02 3,7 C 86 % 1020,0 hPa 0,0 l/m 10,1 km/h (2 Bft) W-NW 292 1,6 C 1,1 C
25.02.2012 08:07 3,7 C 86 % 1020,0 hPa 0,0 l/m 3,6 km/h (1 Bft) W 270 1,6 C 3,7 C
25.02.2012 08:12 3,8 C 86 % 1020,1 hPa 0,0 l/m 16,6 km/h (3 Bft) W-NW 292 1,7 C 0,0 C
25.02.2012 08:17 3,8 C 86 % 1020,0 hPa 0,0 l/m 16,2 km/h (3 Bft) W 270 1,7 C 0,1 C
25.02.2012 08:22 3,8 C 86 % 1020,1 hPa 0,0 l/m 13,3 km/h (3 Bft) SW 225 1,7 C 0,6 C
25.02.2012 08:27 3,9 C 86 % 1020,1 hPa 0,0 l/m 14,4 km/h (3 Bft) W-NW 292 1,8 C 0,5 C
25.02.2012 08:32 3,9 C 86 % 1020,0 hPa 0,0 l/m 14,4 km/h (3 Bft) W 270 1,8 C 0,5 C
25.02.2012 08:37 3,9 C 86 % 1020,0 hPa 0,0 l/m 12,2 km/h (2 Bft) W 270 1,8 C 0,9 C
25.02.2012 08:42 4,0 C 86 % 1019,8 hPa 0,0 l/m 11,9 km/h (2 Bft) W-SW 247 1,9 C 1,1 C
25.02.2012 08:47 4,1 C 86 % 1019,8 hPa 0,0 l/m 17,3 km/h (3 Bft) W-NW 292 2,0 C 0,3 C
25.02.2012 08:52 4,1 C 86 % 1019,9 hPa 0,0 l/m 18,0 km/h (3 Bft) W 270 2,0 C 0,2 C
25.02.2012 08:57 4,2 C 86 % 1019,9 hPa 0,0 l/m 13,7 km/h (3 Bft) SW 225 2,1 C 1,0 C
25.02.2012 09:02 4,4 C 86 % 1019,7 hPa 0,0 l/m 15,5 km/h (3 Bft) W 270 2,3 C 0,9 C
25.02.2012 09:07 4,4 C 86 % 1019,8 hPa 0,0 l/m 13,3 km/h (3 Bft) W-SW 247 2,3 C 1,3 C
25.02.2012 09:12 4,4 C 86 % 1019,7 hPa 0,0 l/m 18,7 km/h (3 Bft) W 270 2,3 C 0,5 C
25.02.2012 09:17 4,5 C 85 % 1019,8 hPa 0,0 l/m 11,5 km/h (2 Bft) W-SW 247 2,2 C 1,7 C
25.02.2012 09:22 4,5 C 85 % 1019,5 hPa 0,0 l/m 19,1 km/h (3 Bft) W-NW 292 2,2 C 0,5 C
25.02.2012 09:27 4,6 C 85 % 1019,6 hPa 0,0 l/m 12,6 km/h (3 Bft) W 270 2,3 C 1,7 C
25.02.2012 09:32 4,6 C 85 % 1019,7 hPa 0,0 l/m 20,2 km/h (4 Bft) W 270 2,3 C 0,5 C
25.02.2012 09:37 4,9 C 86 % 1019,7 hPa 0,0 l/m 15,5 km/h (3 Bft) W 270 2,8 C 1,5 C
25.02.2012 09:42 4,9 C 85 % 1019,6 hPa 0,0 l/m 19,8 km/h (3 Bft) W 270 2,6 C 1,0 C
25.02.2012 09:47 5,0 C 85 % 1019,7 hPa 0,0 l/m 20,9 km/h (4 Bft) W-NW 292 2,7 C 1,0 C
25.02.2012 09:52 5,1 C 85 % 1019,6 hPa 0,0 l/m 10,1 km/h (2 Bft) NW 315 2,8 C 2,8 C
25.02.2012 09:57 5,2 C 84 % 1019,7 hPa 0,0 l/m 9,4 km/h (2 Bft) W-SW 247 2,7 C 3,0 C
25.02.2012 10:02 5,3 C 84 % 1019,5 hPa 0,0 l/m 10,8 km/h (2 Bft) W 270 2,8 C 2,9 C
25.02.2012 10:07 5,4 C 84 % 1019,5 hPa 0,0 l/m 12,2 km/h (2 Bft) W 270 2,9 C 2,7 C
25.02.2012 10:12 5,6 C 83 % 1019,4 hPa 0,0 l/m 25,2 km/h (4 Bft) W-SW 247 2,9 C 1,3 C
25.02.2012 10:17 5,8 C 83 % 1019,4 hPa 0,0 l/m 23,0 km/h (4 Bft) W-NW 292 3,1 C 1,7 C
25.02.2012 10:22 5,8 C 82 % 1019,4 hPa 0,0 l/m 16,2 km/h (3 Bft) W 270 3,0 C 2,6 C
25.02.2012 10:27 5,8 C 81 % 1019,6 hPa 0,0 l/m 13,7 km/h (3 Bft) W 270 2,8 C 2,9 C
25.02.2012 10:32 5,8 C 82 % 1019,4 hPa 0,0 l/m 17,6 km/h (3 Bft) W-SW 247 3,0 C 2,4 C
25.02.2012 10:37 5,8 C 82 % 1019,3 hPa 0,0 l/m 6,8 km/h (2 Bft) NW 315 3,0 C 4,4 C
25.02.2012 10:42 5,9 C 81 % 1019,4 hPa 0,0 l/m 9,4 km/h (2 Bft) W-NW 292 2,9 C 3,9 C
25.02.2012 10:47 6,1 C 81 % 1019,3 hPa 0,0 l/m 6,5 km/h (2 Bft) S-SW 202 3,1 C 4,8 C
25.02.2012 10:52 6,1 C 81 % 1019,3 hPa 0,0 l/m 18,7 km/h (3 Bft) W-SW 247 3,1 C 2,6 C
25.02.2012 10:57 6,2 C 81 % 1019,1 hPa 0,0 l/m 16,9 km/h (3 Bft) W 270 3,2 C 3,0 C
25.02.2012 11:02 6,3 C 81 % 1019,3 hPa 0,0 l/m 19,4 km/h (3 Bft) W-NW 292 3,3 C 2,8 C
25.02.2012 11:07 6,4 C 81 % 1019,2 hPa 0,0 l/m 15,1 km/h (3 Bft) W 270 3,4 C 3,5 C
25.02.2012 11:12 6,6 C 81 % 1019,0 hPa 0,0 l/m 21,2 km/h (4 Bft) W 270 3,6 C 3,0 C
25.02.2012 11:17 6,7 C 80 % 1018,9 hPa 0,0 l/m 18,4 km/h (3 Bft) W-NW 292 3,5 C 3,4 C
25.02.2012 11:22 6,9 C 79 % 1018,9 hPa 0,0 l/m 18,0 km/h (3 Bft) SW 225 3,5 C 3,7 C
25.02.2012 11:27 6,9 C 79 % 1018,9 hPa 0,0 l/m 19,4 km/h (3 Bft) W-SW 247 3,5 C 3,5 C
25.02.2012 11:32 7,2 C 79 % 1018,9 hPa 0,0 l/m 11,5 km/h (2 Bft) W-NW 292 3,8 C 5,0 C
25.02.2012 11:37 7,3 C 78 % 1018,8 hPa 0,0 l/m 8,3 km/h (2 Bft) W-NW 292 3,7 C 5,8 C
25.02.2012 11:42 7,3 C 78 % 1018,8 hPa 0,0 l/m 27,0 km/h (4 Bft) W-SW 247 3,7 C 3,3 C
25.02.2012 11:47 7,2 C 77 % 1018,7 hPa 0,0 l/m 19,8 km/h (3 Bft) W 270 3,4 C 3,9 C
25.02.2012 11:52 7,2 C 77 % 1018,5 hPa 0,0 l/m 23,4 km/h (4 Bft) W 270 3,4 C 3,5 C
25.02.2012 11:57 7,2 C 77 % 1018,5 hPa 0,0 l/m 27,4 km/h (4 Bft) W-NW 292 3,4 C 3,1 C
25.02.2012 12:02 7,2 C 77 % 1018,2 hPa 0,0 l/m 13,7 km/h (3 Bft) W-SW 247 3,4 C 4,7 C
25.02.2012 12:07 7,3 C 77 % 1018,1 hPa 0,0 l/m 20,2 km/h (4 Bft) W 270 3,5 C 3,9 C
25.02.2012 12:12 7,4 C 77 % 1018,0 hPa 0,0 l/m 10,4 km/h (2 Bft) SW 225 3,6 C 5,4 C
25.02.2012 12:17 7,4 C 76 % 1018,0 hPa 0,0 l/m 30,6 km/h (5 Bft) W-NW 292 3,5 C 3,1 C
25.02.2012 12:22 7,4 C 76 % 1017,9 hPa 0,0 l/m 15,5 km/h (3 Bft) W-NW 292 3,5 C 4,6 C
25.02.2012 12:27 7,6 C 76 % 1017,9 hPa 0,0 l/m 20,9 km/h (4 Bft) W-SW 247 3,6 C 4,3 C
25.02.2012 12:32 7,6 C 76 % 1018,0 hPa 0,0 l/m 27,0 km/h (4 Bft) W 270 3,6 C 3,7 C
25.02.2012 12:37 7,9 C 76 % 1017,9 hPa 0,0 l/m 16,6 km/h (3 Bft) W-NW 292 3,9 C 5,1 C
25.02.2012 12:42 7,9 C 75 % 1017,9 hPa 0,0 l/m 16,9 km/h (3 Bft) W-NW 292 3,7 C 5,1 C
25.02.2012 12:47 7,9 C 74 % 1017,8 hPa 0,0 l/m 18,4 km/h (3 Bft) W-NW 292 3,6 C 4,9 C
25.02.2012 12:52 7,9 C 74 % 1017,7 hPa 0,0 l/m 28,8 km/h (4 Bft) W-NW 292 3,6 C 3,9 C
25.02.2012 12:57 7,9 C 74 % 1017,8 hPa 0,0 l/m 26,3 km/h (4 Bft) W-NW 292 3,6 C 4,1 C
25.02.2012 13:02 8,1 C 73 % 1017,9 hPa 0,0 l/m 24,5 km/h (4 Bft) W-NW 292 3,6 C 4,5 C
25.02.2012 13:07 8,1 C 72 % 1017,9 hPa 0,0 l/m 30,6 km/h (5 Bft) W 270 3,4 C 4,1 C
25.02.2012 13:12 8,1 C 72 % 1017,8 hPa 0,0 l/m 22,7 km/h (4 Bft) W 270 3,4 C 4,7 C
25.02.2012 13:17 8,1 C 72 % 1017,7 hPa 0,0 l/m 25,2 km/h (4 Bft) W-NW 292 3,4 C 4,5 C
25.02.2012 13:22 7,9 C 72 % 1017,6 hPa 0,0 l/m 19,1 km/h (3 Bft) W 270 3,2 C 4,8 C
25.02.2012 13:27 7,9 C 72 % 1017,5 hPa 0,0 l/m 25,2 km/h (4 Bft) W-NW 292 3,2 C 4,2 C
25.02.2012 13:32 7,9 C 72 % 1017,5 hPa 0,0 l/m 20,2 km/h (4 Bft) W-NW 292 3,2 C 4,7 C
25.02.2012 13:37 7,9 C 72 % 1017,5 hPa 0,0 l/m 20,9 km/h (4 Bft) W 270 3,2 C 4,6 C
25.02.2012 13:42 7,8 C 72 % 1017,5 hPa 0,0 l/m 17,3 km/h (3 Bft) NW 315 3,1 C 4,9 C
25.02.2012 13:47 7,8 C 72 % 1017,4 hPa 0,0 l/m 23,0 km/h (4 Bft) W-NW 292 3,1 C 4,3 C
25.02.2012 13:52 7,9 C 72 % 1017,3 hPa 0,0 l/m 25,6 km/h (4 Bft) NW 315 3,2 C 4,2 C
25.02.2012 13:57 7,8 C 72 % 1017,1 hPa 0,0 l/m 25,6 km/h (4 Bft) NW 315 3,1 C 4,1 C
25.02.2012 14:02 7,9 C 72 % 1017,1 hPa 0,0 l/m 28,1 km/h (4 Bft) NW 315 3,2 C 4,0 C
25.02.2012 14:07 7,8 C 71 % 1017,1 hPa 0,0 l/m 20,9 km/h (4 Bft) W 270 2,9 C 4,5 C
25.02.2012 14:12 7,9 C 72 % 1017,3 hPa 0,0 l/m 29,9 km/h (5 Bft) W 270 3,2 C 3,8 C
25.02.2012 14:17 7,9 C 72 % 1017,1 hPa 0,0 l/m 21,2 km/h (4 Bft) W-NW 292 3,2 C 4,6 C
25.02.2012 14:22 8,1 C 72 % 1017,0 hPa 0,0 l/m 22,7 km/h (4 Bft) NW 315 3,4 C 4,7 C
25.02.2012 14:27 8,1 C 72 % 1016,8 hPa 0,0 l/m 18,4 km/h (3 Bft) W 270 3,4 C 5,2 C
25.02.2012 14:32 8,1 C 72 % 1016,8 hPa 0,0 l/m 25,6 km/h (4 Bft) W-NW 292 3,4 C 4,4 C
25.02.2012 14:37 8,2 C 71 % 1016,7 hPa 0,0 l/m 23,4 km/h (4 Bft) W-NW 292 3,3 C 4,8 C
25.02.2012 14:42 8,2 C 70 % 1016,6 hPa 0,0 l/m 30,2 km/h (5 Bft) W-NW 292 3,1 C 4,2 C
25.02.2012 14:47 8,2 C 71 % 1016,8 hPa 0,0 l/m 27,0 km/h (4 Bft) W-NW 292 3,3 C 4,5 C
25.02.2012 14:52 8,2 C 70 % 1016,8 hPa 0,0 l/m 40,3 km/h (6 Bft) W 270 3,1 C 3,5 C
25.02.2012 14:57 8,1 C 70 % 1016,8 hPa 0,0 l/m 16,2 km/h (3 Bft) W-NW 292 3,0 C 5,4 C
25.02.2012 15:02 8,1 C 70 % 1016,7 hPa 0,0 l/m 32,8 km/h (5 Bft) W-SW 247 3,0 C 3,9 C
25.02.2012 15:07 8,1 C 70 % 1016,7 hPa 0,0 l/m 19,4 km/h (3 Bft) NW 315 3,0 C 5,0 C
25.02.2012 15:12 8,1 C 70 % 1016,8 hPa 0,0 l/m 15,8 km/h (3 Bft) W-NW 292 3,0 C 5,5 C
25.02.2012 15:17 8,1 C 70 % 1016,7 hPa 0,0 l/m 25,2 km/h (4 Bft) W 270 3,0 C 4,5 C
25.02.2012 15:22 8,1 C 70 % 1016,7 hPa 0,0 l/m 19,1 km/h (3 Bft) W 270 3,0 C 5,1 C
25.02.2012 15:27 8,1 C 70 % 1016,6 hPa 0,0 l/m 22,0 km/h (4 Bft) W-NW 292 3,0 C 4,8 C
25.02.2012 15:32 8,1 C 70 % 1016,6 hPa 0,0 l/m 24,1 km/h (4 Bft) W 270 3,0 C 4,6 C
25.02.2012 15:37 8,1 C 69 % 1016,5 hPa 0,0 l/m 22,7 km/h (4 Bft) W 270 2,8 C 4,7 C
25.02.2012 15:42 8,1 C 69 % 1016,4 hPa 0,0 l/m 18,7 km/h (3 Bft) W-NW 292 2,8 C 5,1 C
25.02.2012 15:47 8,0 C 69 % 1016,3 hPa 0,0 l/m 16,6 km/h (3 Bft) W-NW 292 2,7 C 5,2 C
25.02.2012 15:52 7,9 C 69 % 1016,3 hPa 0,0 l/m 24,8 km/h (4 Bft) W 270 2,6 C 4,3 C
25.02.2012 15:57 7,9 C 69 % 1016,2 hPa 0,0 l/m 14,8 km/h (3 Bft) W-NW 292 2,6 C 5,4 C
25.02.2012 16:02 7,9 C 70 % 1016,3 hPa 0,0 l/m 23,0 km/h (4 Bft) N-NW 337 2,8 C 4,4 C
25.02.2012 16:07 7,9 C 69 % 1016,0 hPa 0,0 l/m 32,4 km/h (5 Bft) W-NW 292 2,6 C 3,7 C
25.02.2012 16:12 7,9 C 69 % 1016,1 hPa 0,0 l/m 19,4 km/h (3 Bft) W 270 2,6 C 4,8 C
25.02.2012 16:17 7,8 C 69 % 1016,3 hPa 0,0 l/m 14,8 km/h (3 Bft) W-NW 292 2,5 C 5,2 C
25.02.2012 16:22 7,8 C 70 % 1016,3 hPa 0,0 l/m 13,0 km/h (3 Bft) W-SW 247 2,7 C 5,5 C
25.02.2012 16:27 7,8 C 70 % 1016,1 hPa 0,0 l/m 25,9 km/h (4 Bft) NW 315 2,7 C 4,0 C
25.02.2012 16:32 7,9 C 70 % 1016,2 hPa 0,0 l/m 29,9 km/h (5 Bft) W 270 2,8 C 3,8 C
25.02.2012 16:37 7,9 C 69 % 1016,3 hPa 0,0 l/m 10,8 km/h (2 Bft) W-NW 292 2,6 C 6,0 C
25.02.2012 16:42 7,9 C 70 % 1016,1 hPa 0,0 l/m 14,0 km/h (3 Bft) W 270 2,8 C 5,5 C
25.02.2012 16:47 7,8 C 70 % 1016,3 hPa 0,0 l/m 26,3 km/h (4 Bft) W-NW 292 2,7 C 4,0 C
25.02.2012 16:52 7,8 C 70 % 1016,2 hPa 0,0 l/m 19,1 km/h (3 Bft) W-NW 292 2,7 C 4,7 C
25.02.2012 16:57 7,8 C 71 % 1016,2 hPa 0,0 l/m 14,4 km/h (3 Bft) W-NW 292 2,9 C 5,3 C
25.02.2012 17:02 7,8 C 71 % 1016,0 hPa 0,0 l/m 15,1 km/h (3 Bft) W 270 2,9 C 5,2 C
25.02.2012 17:07 7,6 C 71 % 1016,0 hPa 0,0 l/m 14,8 km/h (3 Bft) W-NW 292 2,7 C 5,0 C
25.02.2012 17:12 7,6 C 71 % 1016,2 hPa 0,0 l/m 19,8 km/h (3 Bft) W 270 2,7 C 4,4 C
25.02.2012 17:17 7,6 C 71 % 1016,2 hPa 0,0 l/m 20,5 km/h (4 Bft) W-NW 292 2,7 C 4,3 C
25.02.2012 17:22 7,6 C 71 % 1016,2 hPa 0,0 l/m 26,3 km/h (4 Bft) W-NW 292 2,7 C 3,7 C
25.02.2012 17:27 7,5 C 71 % 1016,3 hPa 0,0 l/m 22,0 km/h (4 Bft) W-NW 292 2,6 C 4,0 C
25.02.2012 17:32 7,4 C 72 % 1016,4 hPa 0,0 l/m 18,0 km/h (3 Bft) W-NW 292 2,7 C 4,3 C
25.02.2012 17:37 7,4 C 72 % 1016,3 hPa 0,0 l/m 20,9 km/h (4 Bft) W-NW 292 2,7 C 4,0 C
25.02.2012 17:42 7,3 C 72 % 1016,3 hPa 0,0 l/m 14,0 km/h (3 Bft) W-NW 292 2,6 C 4,7 C
25.02.2012 17:47 7,3 C 72 % 1016,5 hPa 0,0 l/m 13,7 km/h (3 Bft) W 270 2,6 C 4,8 C
25.02.2012 17:52 7,3 C 72 % 1016,4 hPa 0,0 l/m 15,8 km/h (3 Bft) W 270 2,6 C 4,5 C
25.02.2012 17:57 7,2 C 72 % 1016,5 hPa 0,0 l/m 24,1 km/h (4 Bft) W-NW 292 2,5 C 3,4 C
25.02.2012 18:02 7,2 C 72 % 1016,7 hPa 0,0 l/m 16,6 km/h (3 Bft) W 270 2,5 C 4,2 C
25.02.2012 18:07 7,2 C 71 % 1016,6 hPa 0,0 l/m 18,4 km/h (3 Bft) W 270 2,3 C 4,0 C
25.02.2012 18:12 7,2 C 71 % 1016,7 hPa 0,0 l/m 13,3 km/h (3 Bft) N-NW 337 2,3 C 4,7 C
25.02.2012 18:17 7,2 C 71 % 1017,0 hPa 0,0 l/m 13,0 km/h (3 Bft) NW 315 2,3 C 4,8 C
25.02.2012 18:22 7,1 C 71 % 1016,8 hPa 0,0 l/m 24,8 km/h (4 Bft) NW 315 2,2 C 3,2 C
25.02.2012 18:27 7,0 C 71 % 1016,8 hPa 0,0 l/m 25,9 km/h (4 Bft) NW 315 2,1 C 3,0 C
25.02.2012 18:32 7,0 C 71 % 1016,8 hPa 0,0 l/m 15,8 km/h (3 Bft) W-NW 292 2,1 C 4,1 C
25.02.2012 18:37 7,1 C 71 % 1016,7 hPa 0,0 l/m 22,0 km/h (4 Bft) W-SW 247 2,2 C 3,5 C
25.02.2012 18:42 7,0 C 71 % 1016,6 hPa 0,0 l/m 19,8 km/h (3 Bft) W-NW 292 2,1 C 3,6 C
25.02.2012 18:47 6,9 C 72 % 1016,6 hPa 0,0 l/m 22,7 km/h (4 Bft) NW 315 2,2 C 3,2 C
25.02.2012 18:52 6,9 C 72 % 1016,7 hPa 0,0 l/m 13,7 km/h (3 Bft) W-NW 292 2,2 C 4,3 C
25.02.2012 18:57 6,9 C 72 % 1016,6 hPa 0,0 l/m 18,7 km/h (3 Bft) N-NW 337 2,2 C 3,6 C
25.02.2012 19:02 6,9 C 73 % 1016,9 hPa 0,0 l/m 19,8 km/h (3 Bft) NW 315 2,4 C 3,5 C
25.02.2012 19:07 6,8 C 73 % 1016,9 hPa 0,0 l/m 28,1 km/h (4 Bft) W-NW 292 2,3 C 2,6 C
25.02.2012 19:12 6,8 C 73 % 1017,0 hPa 0,0 l/m 15,5 km/h (3 Bft) N 360 2,3 C 3,9 C
25.02.2012 19:17 6,8 C 73 % 1016,8 hPa 0,0 l/m 24,1 km/h (4 Bft) W-NW 292 2,3 C 2,9 C
25.02.2012 19:22 6,8 C 73 % 1016,7 hPa 0,0 l/m 12,2 km/h (2 Bft) W 270 2,3 C 4,4 C
25.02.2012 19:27 6,7 C 73 % 1016,6 hPa 0,0 l/m 21,2 km/h (4 Bft) W 270 2,2 C 3,1 C
25.02.2012 19:32 6,6 C 73 % 1016,8 hPa 0,0 l/m 14,8 km/h (3 Bft) W-NW 292 2,1 C 3,8 C
25.02.2012 19:37 6,6 C 73 % 1016,7 hPa 0,0 l/m 26,3 km/h (4 Bft) W-NW 292 2,1 C 2,5 C
25.02.2012 19:42 6,6 C 74 % 1016,8 hPa 0,0 l/m 12,6 km/h (3 Bft) N-NW 337 2,3 C 4,1 C
25.02.2012 19:47 6,5 C 74 % 1016,8 hPa 0,0 l/m 20,9 km/h (4 Bft) W-NW 292 2,2 C 2,9 C
25.02.2012 19:52 6,4 C 74 % 1016,8 hPa 0,0 l/m 13,0 km/h (3 Bft) W 270 2,1 C 3,8 C
25.02.2012 19:57 6,4 C 74 % 1016,8 hPa 0,0 l/m 17,3 km/h (3 Bft) W-NW 292 2,1 C 3,2 C
25.02.2012 20:02 6,4 C 74 % 1016,7 hPa 0,0 l/m 18,4 km/h (3 Bft) N-NW 337 2,1 C 3,0 C
25.02.2012 20:07 6,4 C 74 % 1016,8 hPa 0,0 l/m 14,8 km/h (3 Bft) N-NW 337 2,1 C 3,5 C
25.02.2012 20:12 6,3 C 74 % 1016,7 hPa 0,0 l/m 23,0 km/h (4 Bft) W-NW 292 2,0 C 2,4 C
25.02.2012 20:17 6,3 C 74 % 1016,8 hPa 0,0 l/m 25,9 km/h (4 Bft) W-NW 292 2,0 C 2,1 C
25.02.2012 20:22 6,2 C 74 % 1016,8 hPa 0,0 l/m 16,9 km/h (3 Bft) W 270 1,9 C 3,0 C
25.02.2012 20:27 6,2 C 75 % 1016,8 hPa 0,0 l/m 9,7 km/h (2 Bft) NW 315 2,1 C 4,2 C
25.02.2012 20:32 6,1 C 75 % 1016,7 hPa 0,0 l/m 20,9 km/h (4 Bft) N-NW 337 2,0 C 2,4 C
25.02.2012 20:37 6,0 C 75 % 1016,7 hPa 0,0 l/m 27,7 km/h (4 Bft) NW 315 1,9 C 1,6 C
25.02.2012 20:42 5,9 C 76 % 1016,8 hPa 0,0 l/m 23,8 km/h (4 Bft) W 270 2,0 C 1,8 C
25.02.2012 20:47 5,9 C 76 % 1016,9 hPa 0,0 l/m 15,1 km/h (3 Bft) W-NW 292 2,0 C 2,8 C
25.02.2012 20:52 5,8 C 76 % 1016,9 hPa 0,0 l/m 20,5 km/h (4 Bft) W-NW 292 1,9 C 2,0 C
25.02.2012 20:57 5,8 C 77 % 1016,7 hPa 0,0 l/m 18,7 km/h (3 Bft) W 270 2,1 C 2,2 C
25.02.2012 21:02 5,8 C 77 % 1016,7 hPa 0,0 l/m 9,4 km/h (2 Bft) W 270 2,1 C 3,7 C
25.02.2012 21:07 5,8 C 78 % 1016,8 hPa 0,0 l/m 13,0 km/h (3 Bft) N-NW 337 2,3 C 3,1 C
25.02.2012 21:12 5,6 C 77 % 1016,8 hPa 0,0 l/m 14,8 km/h (3 Bft) W-NW 292 1,9 C 2,5 C
25.02.2012 21:17 5,6 C 78 % 1016,8 hPa 0,0 l/m 18,4 km/h (3 Bft) NW 315 2,1 C 2,0 C
25.02.2012 21:22 5,6 C 78 % 1016,9 hPa 0,0 l/m 18,0 km/h (3 Bft) NW 315 2,1 C 2,1 C
25.02.2012 21:27 5,6 C 78 % 1016,9 hPa 0,0 l/m 19,8 km/h (3 Bft) W-NW 292 2,1 C 1,8 C
25.02.2012 21:32 5,6 C 79 % 1017,0 hPa 0,0 l/m 10,1 km/h (2 Bft) NW 315 2,3 C 3,4 C
25.02.2012 21:37 5,5 C 79 % 1017,2 hPa 0,0 l/m 13,3 km/h (3 Bft) W-NW 292 2,2 C 2,6 C
25.02.2012 21:42 5,5 C 79 % 1017,2 hPa 0,0 l/m 12,2 km/h (2 Bft) W-NW 292 2,2 C 2,8 C
25.02.2012 21:47 5,5 C 79 % 1017,3 hPa 0,0 l/m 9,0 km/h (2 Bft) W-NW 292 2,2 C 3,5 C
25.02.2012 21:52 5,6 C 79 % 1017,2 hPa 0,0 l/m 14,4 km/h (3 Bft) W 270 2,3 C 2,6 C
25.02.2012 21:57 5,6 C 80 % 1017,2 hPa 0,0 l/m 10,4 km/h (2 Bft) W-NW 292 2,4 C 3,3 C
25.02.2012 22:02 5,6 C 80 % 1017,2 hPa 0,0 l/m 16,6 km/h (3 Bft) NW 315 2,4 C 2,3 C
25.02.2012 22:07 5,6 C 80 % 1017,4 hPa 0,0 l/m 14,4 km/h (3 Bft) W 270 2,4 C 2,6 C
25.02.2012 22:12 5,8 C 80 % 1017,4 hPa 0,0 l/m 24,5 km/h (4 Bft) W 270 2,6 C 1,6 C
25.02.2012 22:17 5,8 C 80 % 1017,4 hPa 0,0 l/m 19,1 km/h (3 Bft) W-NW 292 2,6 C 2,2 C
25.02.2012 22:22 5,8 C 80 % 1017,4 hPa 0,0 l/m 23,0 km/h (4 Bft) NW 315 2,6 C 1,7 C
25.02.2012 22:27 5,8 C 79 % 1017,4 hPa 0,0 l/m 18,0 km/h (3 Bft) W-NW 292 2,4 C 2,3 C
25.02.2012 22:32 5,8 C 79 % 1017,4 hPa 0,0 l/m 18,0 km/h (3 Bft) W 270 2,4 C 2,3 C
25.02.2012 22:37 5,8 C 79 % 1017,2 hPa 0,0 l/m 18,4 km/h (3 Bft) W 270 2,4 C 2,3 C
25.02.2012 22:42 5,8 C 79 % 1017,3 hPa 0,0 l/m 18,4 km/h (3 Bft) NW 315 2,4 C 2,3 C
25.02.2012 22:47 5,8 C 79 % 1017,1 hPa 0,0 l/m 11,9 km/h (2 Bft) N-NO 22 2,4 C 3,2 C
25.02.2012 22:52 5,8 C 79 % 1017,2 hPa 0,0 l/m 12,2 km/h (2 Bft) W 270 2,4 C 3,2 C
25.02.2012 22:57 5,8 C 80 % 1017,4 hPa 0,0 l/m 10,1 km/h (2 Bft) W-NW 292 2,6 C 3,6 C
25.02.2012 23:02 5,7 C 80 % 1017,3 hPa 0,0 l/m 14,0 km/h (3 Bft) W 270 2,5 C 2,8 C
25.02.2012 23:07 5,8 C 80 % 1017,3 hPa 0,0 l/m 8,3 km/h (2 Bft) W 270 2,6 C 4,0 C
25.02.2012 23:12 5,6 C 81 % 1017,4 hPa 0,0 l/m 20,2 km/h (4 Bft) W 270 2,6 C 1,8 C
25.02.2012 23:17 5,6 C 81 % 1017,2 hPa 0,0 l/m 10,8 km/h (2 Bft) W 270 2,6 C 3,2 C
25.02.2012 23:22 5,6 C 81 % 1017,3 hPa 0,0 l/m 23,0 km/h (4 Bft) W 270 2,6 C 1,5 C
25.02.2012 23:27 5,6 C 81 % 1017,4 hPa 0,0 l/m 15,8 km/h (3 Bft) W 270 2,6 C 2,4 C
25.02.2012 23:32 5,6 C 81 % 1017,3 hPa 0,0 l/m 14,8 km/h (3 Bft) W-NW 292 2,6 C 2,5 C
25.02.2012 23:37 5,5 C 81 % 1017,4 hPa 0,0 l/m 12,2 km/h (2 Bft) W-NW 292 2,5 C 2,8 C
25.02.2012 23:42 5,5 C 81 % 1017,4 hPa 0,0 l/m 11,9 km/h (2 Bft) W 270 2,5 C 2,9 C
25.02.2012 23:47 5,5 C 82 % 1017,5 hPa 0,0 l/m 15,1 km/h (3 Bft) W 270 2,7 C 2,4 C
25.02.2012 23:52 5,5 C 82 % 1017,4 hPa 0,0 l/m 19,1 km/h (3 Bft) W 270 2,7 C 1,8 C
25.02.2012 23:57 5,5 C 82 % 1017,2 hPa 0,0 l/m 10,1 km/h (2 Bft) W-NW 292 2,7 C 3,2 C
_ Min-Zeit 07:22 15:37 16:07 - 08:07 - - 07:22 07:27
Minimum _ 3,6 C 69 % 1016,0 hPa - 3,6 km/h (1 Bft) - - 1,5 C -1,3 C
_ Max-Zeit 14:37 06:22 02:07 00:02 14:52 - - 12:37 16:37
Maximum _ 8,2 C 86 % 1021,0 hPa 0,0 l/m 40,3 km/h
W (6 Bft)
- - 3,9 C 6,0 C
Durchschnitt _ 5,9 C 79 % 1018,4 hPa #0,0 l/m 18,2 km/h (3 Bft) W-NW - 2,5 C 2,5 C
(c) by David Heller